Weather reports worldwide

Advertisment
Quintanar De La Orden, Spain (8275): temperature & dewpoint: 16.09.2018 23:00:00 - 22.09.2018 23:00:00 (CEST)Quintanar De La Orden, Spain (8275): wind speed & gusts: 16.09.2018 23:00:00 - 22.09.2018 23:00:00 (CEST)Quintanar De La Orden, Spain (8275): wind direction: 16.09.2018 23:00:00 - 22.09.2018 23:00:00 (CEST)Quintanar De La Orden, Spain (8275): reduced air pressure: 16.09.2018 23:00:00 - 22.09.2018 23:00:00 (CEST)Quintanar De La Orden, Spain (8275): precipitation: 16.09.2018 23:00:00 - 22.09.2018 23:00:00 (CEST)
Date & Time tt [°C] td [°C] ff [km/h] ff [kn] fx [km/h] fx [kn] dd ppp [hPa] rr [mm]
22.09.2018 23:00:00 - - - - - - - - -
22.09.2018 22:00:00 26,2 9,9 3 2 5 3 ENE 1010,6 0,0
22.09.2018 21:00:00 27,8 10,5 3 1 7 4 NE 1010,2 0,0
22.09.2018 20:00:00 29,1 10,8 0 0 8 5 NW 1009,9 -
22.09.2018 19:00:00 30,8 10,8 2 1 11 6 NNW 1009,3 0,1
22.09.2018 18:00:00 - - 4 2 16 9 NE - 0,0
22.09.2018 17:00:00 32,4 11,6 3 1 16 9 WNW 1009,0 0,0
22.09.2018 16:00:00 32,1 12,3 4 2 19 11 NNW 1009,1 0,0
22.09.2018 15:00:00 31,5 12,3 4 2 13 7 NNE 1009,3 0,0
22.09.2018 14:00:00 30,6 13,4 3 2 10 6 SW 1009,4 -
22.09.2018 13:00:00 29,8 15,5 1 1 9 5 S 1009,4 0,0
22.09.2018 12:00:00 26,8 15,8 4 2 10 5 S 1010,3 0,0
22.09.2018 11:00:00 24,4 15,9 5 3 13 7 S 1010,9 0,0
22.09.2018 10:00:00 20,4 14,0 1 1 5 3 WNW 1012,2 0,0
22.09.2018 09:00:00 18,3 12,5 0 0 3 2 N 1012,8 0,0
22.09.2018 08:00:00 17,7 11,4 0 0 5 3 N 1013,0 -
22.09.2018 07:00:00 17,7 10,5 2 1 6 3 NE 1013,0 0,0
22.09.2018 06:00:00 19,0 11,1 0 0 5 3 N 1012,6 0,0
22.09.2018 05:00:00 19,0 9,8 2 1 5 3 NE 1012,7 0,0
22.09.2018 04:00:00 19,9 10,0 1 1 8 4 E 1012,4 0,0
22.09.2018 03:00:00 - - 3 2 10 5 NE - 0,0
22.09.2018 02:00:00 20,7 9,9 5 3 12 6 NNW 1012,1 -
22.09.2018 01:00:00 - - 0 0 5 3 N - 0,0
22.09.2018 00:00:00 - - 0 0 6 4 ENE - 0,0
21.09.2018 23:00:00 24,3 9,8 4 2 6 3 NE 1011,1 0,0
21.09.2018 22:00:00 - - 0 0 4 2 ENE - 0,0
21.09.2018 21:00:00 - - 3 2 7 4 NE - 0,0
21.09.2018 20:00:00 28,7 9,9 1 1 6 3 NW 1010,0 -
21.09.2018 19:00:00 30,1 9,6 3 2 9 5 W 1009,6 0,0
21.09.2018 18:00:00 31,3 10,6 4 2 14 7 NNW 1009,4 0,0
21.09.2018 17:00:00 31,9 11,1 4 2 14 8 N 1009,1 0,0
21.09.2018 16:00:00 31,8 11,6 2 1 16 8 N 1009,2 0,0
21.09.2018 15:00:00 31,8 12,5 3 1 13 7 NW 1009,2 0,0
21.09.2018 14:00:00 29,5 12,4 4 2 12 7 N 1009,7 -
21.09.2018 13:00:00 27,3 12,8 1 1 11 6 NNW 1010,3 0,0
21.09.2018 12:00:00 25,1 13,0 1 1 10 5 SW 1010,8 0,0
21.09.2018 11:00:00 22,5 13,6 3 2 9 5 SW 1011,6 0,0
21.09.2018 10:00:00 20,3 13,8 3 2 15 8 S 1012,2 0,0
21.09.2018 09:00:00 - - 1 0 12 6 W - 0,0
21.09.2018 08:00:00 18,6 13,9 4 2 13 7 SSE 1012,6 -
21.09.2018 07:00:00 - - 3 1 10 6 SSE - 0,0
21.09.2018 06:00:00 18,9 12,2 4 2 12 6 SSE 1012,5 0,0
21.09.2018 05:00:00 - - 3 2 10 5 S - 0,0
21.09.2018 04:00:00 - - 4 2 13 7 SSE - 0,0
21.09.2018 03:00:00 - - 3 2 10 6 SSE - 0,0
21.09.2018 02:00:00 22,1 8,9 3 2 13 7 S 1011,7 -
21.09.2018 01:00:00 22,2 9,3 4 2 9 5 SSE 1011,7 0,0
21.09.2018 00:00:00 22,4 9,2 2 1 8 4 SSE 1011,7 0,0
20.09.2018 23:00:00 23,5 9,2 1 1 6 3 SSE 1011,4 0,0
20.09.2018 22:00:00 24,9 10,4 1 1 4 2 SSE 1011,0 0,0
20.09.2018 21:00:00 26,4 9,7 0 0 2 1 NNE 1010,6 0,0
20.09.2018 20:00:00 27,7 9,0 0 0 8 4 N 1010,3 -
20.09.2018 19:00:00 29,6 9,2 4 2 18 10 SW 1009,8 0,0
20.09.2018 18:00:00 29,9 8,9 5 3 14 8 NNE 1009,7 0,0
20.09.2018 17:00:00 31,8 9,9 7 4 18 10 SW 1009,2 0,0
20.09.2018 16:00:00 31,5 10,3 3 2 16 9 SSW 1009,4 0,0
20.09.2018 15:00:00 31,5 11,3 3 1 12 7 SW 1009,2 0,0
20.09.2018 14:00:00 - - 3 2 15 8 S - -
20.09.2018 13:00:00 - - 2 1 15 8 S - 0,0
20.09.2018 12:00:00 26,4 15,8 5 3 15 8 S 1010,2 0,0
20.09.2018 11:00:00 - - 6 3 13 7 S - 0,0
20.09.2018 10:00:00 - - 6 3 15 8 SSE - 0,1
20.09.2018 09:00:00 - - 5 3 15 8 SSE - 0,0
20.09.2018 08:00:00 18,9 16,1 4 2 14 8 SSE 1012,4 -
20.09.2018 07:00:00 19,1 16,3 3 2 16 9 SSE 1012,3 0,0
20.09.2018 06:00:00 19,3 16,3 4 2 16 9 SSE 1012,3 0,0
20.09.2018 05:00:00 19,7 16,3 5 3 21 11 SSE 1011,7 0,0
20.09.2018 04:00:00 20,1 15,7 6 3 18 10 SSE 1012,2 0,0
20.09.2018 03:00:00 20,5 15,1 3 2 19 11 SSE 1012,0 0,0
20.09.2018 02:00:00 21,0 14,4 3 2 16 9 SSE 1011,9 -
20.09.2018 01:00:00 21,5 12,8 6 3 18 10 SSE 1011,8 0,0
20.09.2018 00:00:00 22,7 11,8 5 3 12 7 SSE 1011,4 0,0
19.09.2018 23:00:00 23,2 11,9 4 2 9 5 SSE 1011,4 0,0
19.09.2018 22:00:00 24,4 11,0 4 2 11 6 S 1011,1 0,0
19.09.2018 21:00:00 25,8 10,0 5 3 15 8 S 1010,6 0,0
19.09.2018 20:00:00 27,7 10,4 5 3 12 7 S 1010,2 -
19.09.2018 19:00:00 29,0 11,1 3 2 11 6 SSE 1009,8 0,1
19.09.2018 18:00:00 30,0 11,4 2 1 11 6 ESE 1009,6 0,0
19.09.2018 17:00:00 - - 3 2 13 7 NNE - 0,1
19.09.2018 16:00:00 29,7 12,1 3 1 10 5 NW 1009,5 0,0
19.09.2018 15:00:00 - - 2 1 12 7 S - 0,0
19.09.2018 14:00:00 27,7 14,3 1 0 11 6 NNW 1010,1 -
19.09.2018 13:00:00 - - 1 0 7 4 WSW - 0,5
19.09.2018 12:00:00 23,3 14,3 1 1 6 3 SE 1011,2 0,0
19.09.2018 11:00:00 20,5 15,1 1 1 6 4 SSE 1012,0 0,0
19.09.2018 10:00:00 18,4 15,8 2 1 5 3 SSW 1012,5 0,0
19.09.2018 09:00:00 16,8 14,8 1 1 4 2 NE 1013,0 0,5
19.09.2018 08:00:00 16,4 14,6 0 0 0 0 N 1013,2 -
19.09.2018 07:00:00 16,4 14,6 0 0 4 2 N 1013,2 0,0
19.09.2018 06:00:00 16,7 14,7 0 0 3 2 N 1013,2 0,0
19.09.2018 05:00:00 16,9 14,9 1 0 8 4 ENE 1013,1 0,0
19.09.2018 04:00:00 17,6 15,4 2 1 4 2 NE 1012,9 0,0
19.09.2018 03:00:00 17,9 15,7 2 1 6 3 SW 1012,8 0,0
19.09.2018 02:00:00 18,4 16,0 3 2 18 10 SSE 1012,5 -
19.09.2018 01:00:00 18,9 15,8 7 4 21 12 SSE 1012,4 0,0
19.09.2018 00:00:00 19,8 15,6 4 2 17 9 SSE 1012,3 0,0
18.09.2018 23:00:00 21,2 15,7 5 3 11 6 SSE 1011,8 0,0
18.09.2018 22:00:00 - - 1 1 8 4 WSW - 0,0
18.09.2018 21:00:00 21,8 17,1 6 4 11 6 ENE 1011,6 1,5
18.09.2018 20:00:00 22,0 14,9 11 6 35 19 NNE 1011,6 -
18.09.2018 19:00:00 - - 4 2 11 6 N - 0,0
18.09.2018 18:00:00 - - 3 1 14 7 N - 0,0
18.09.2018 17:00:00 29,5 12,0 3 1 16 9 N 1009,7 0,0
18.09.2018 16:00:00 - - 1 0 14 8 NNE - 0,0
18.09.2018 15:00:00 27,7 12,8 1 1 15 8 NE 1010,2 0,0
18.09.2018 14:00:00 26,2 13,0 4 2 16 9 N 1010,4 -
18.09.2018 13:00:00 24,7 13,0 3 2 15 8 W 1010,8 0,0
18.09.2018 12:00:00 23,4 14,7 1 1 8 4 W 1011,2 0,0
18.09.2018 11:00:00 20,9 15,3 1 1 9 5 ESE 1011,9 0,0
18.09.2018 10:00:00 19,2 16,4 4 2 9 5 S 1012,3 0,0
18.09.2018 09:00:00 18,0 17,1 3 2 14 7 SSW 1012,6 0,0
18.09.2018 08:00:00 18,1 17,0 4 2 13 7 SSE 1012,6 -
18.09.2018 07:00:00 18,3 17,1 4 2 10 5 SSE 1012,5 0,0
18.09.2018 06:00:00 17,9 16,2 1 1 10 5 SW 1012,8 0,0
18.09.2018 05:00:00 18,8 17,1 3 2 12 6 SSE 1012,5 0,0
18.09.2018 04:00:00 18,8 16,8 4 2 11 6 SSE 1012,5 0,0
18.09.2018 03:00:00 18,9 16,0 1 1 10 5 ENE 1012,4 0,0
18.09.2018 02:00:00 - - 2 1 9 5 E - -
18.09.2018 01:00:00 19,6 15,1 3 1 9 5 SSE 1012,1 0,0
18.09.2018 00:00:00 - - 2 1 13 7 SSE - 0,0
17.09.2018 23:00:00 - - 7 4 16 8 SSE - 0,0
17.09.2018 22:00:00 - - 6 3 21 11 SSE - 0,0
17.09.2018 21:00:00 22,1 13,5 5 3 20 11 SSE 1011,6 0,0
17.09.2018 20:00:00 - - - - - - - - -
17.09.2018 19:00:00 - - 14 8 32 17 S - 0,0
17.09.2018 18:00:00 - - 10 5 26 14 S - 0,0
17.09.2018 17:00:00 28,0 14,2 4 2 23 12 SSE 1010,0 0,0
17.09.2018 16:00:00 28,1 15,1 9 5 19 11 S 1010,0 0,0
17.09.2018 15:00:00 27,5 15,5 5 3 23 12 SSE 1010,1 0,0
17.09.2018 14:00:00 26,3 15,3 8 4 21 11 SSE 1010,4 -
17.09.2018 13:00:00 26,0 16,0 9 5 25 13 S 1010,5 0,0
17.09.2018 12:00:00 24,9 16,0 10 6 27 15 SSE 1010,7 0,0
17.09.2018 11:00:00 22,8 16,1 8 4 24 13 SSE 1011,3 0,0
17.09.2018 10:00:00 21,1 16,0 10 5 28 15 SSE 1011,8 0,0
17.09.2018 09:00:00 19,2 14,4 6 3 22 12 SSE 1012,4 0,0
17.09.2018 08:00:00 18,6 12,3 6 3 22 12 SSE 1012,6 -
17.09.2018 07:00:00 18,8 12,3 6 3 22 12 SSE 1012,5 0,0
17.09.2018 06:00:00 19,3 13,1 6 3 20 11 SSE 1012,5 0,0
17.09.2018 05:00:00 19,9 14,2 4 2 21 12 SSE 1012,2 0,0
17.09.2018 04:00:00 20,4 14,7 4 2 27 14 SE 1012,1 0,0
17.09.2018 03:00:00 - - 6 3 23 12 SSE - 0,0
17.09.2018 02:00:00 21,3 14,9 8 4 22 12 SSE 1011,7 -
17.09.2018 01:00:00 - - 5 3 20 11 SE - 0,0
17.09.2018 00:00:00 22,2 8,7 3 1 10 5 SSE 1011,8 0,0
16.09.2018 23:00:00 - - 2 1 7 4 SE - 0,0

tt = temperature
td = dewpoint
ff = wind speed
fx = gusts
dd = wind direction
ppp = reduced air pressure
rr = precipitation

Next stations